Time;durP1;ratioP1;P1;durP2;ratioP2;P2;SDS_P1;SDS_P2;PMS_P1;PMS_P2;Temp;Humidity;BMP_temperature;BMP_pressure;BME280_temperature;BME280_humidity;BME280_pressure;Samples;Min_cycle;Max_cycle;Signal;HPM_P1;HPM_P2
2022/06/01 00:00:47;;;;;;;22.63;19.02;;;;;;;;;;4931579;29;20039;-64
2022/06/01 00:03:13;;;;;;;20.55;17.58;;;;;;;;;;4931949;29;20090;-65
2022/06/01 00:05:40;;;;;;;23.10;17.80;;;;;;;;;;4932534;29;20063;-63
2022/06/01 00:08:06;;;;;;;21.42;18.00;;;;;;;;;;4932259;29;20036;-63
2022/06/01 00:10:33;;;;;;;20.52;17.50;;;;;;;;;;4932373;29;20027;-64
2022/06/01 00:12:59;;;;;;;23.17;19.25;;;;;;;;;;4932499;29;20480;-63
2022/06/01 00:15:26;;;;;;;21.25;17.33;;;;;;;;;;4932718;29;20086;-63
2022/06/01 00:17:52;;;;;;;21.30;17.10;;;;;;;;;;4932313;29;20023;-64
2022/06/01 00:20:18;;;;;;;25.63;18.27;;;;;;;;;;4932592;29;20058;-63
2022/06/01 00:22:45;;;;;;;23.70;16.30;;;;;;;;;;4932266;29;20570;-64
2022/06/01 00:25:14;;;;;;;23.48;17.05;;;;;;;;;;4932533;29;20115;-64
2022/06/01 00:27:40;;;;;;;20.17;15.05;;;;;;;;;;4931985;29;20369;-62
2022/06/01 00:30:07;;;;;;;20.55;15.60;;;;;;;;;;4932287;29;20035;-64
2022/06/01 00:32:34;;;;;;;20.98;16.00;;;;;;;;;;4915209;29;20047;-64
2022/06/01 00:35:00;;;;;;;22.20;16.13;;;;;;;;;;4932429;29;20024;-63
2022/06/01 00:37:27;;;;;;;24.35;16.40;;;;;;;;;;4947029;23;20386;-63
2022/06/01 00:39:53;;;;;;;22.15;16.17;;;;;;;;;;4897901;28;20046;-64
2022/06/01 00:42:24;;;;;;;21.65;16.33;;;;;;;;;;4898031;28;20451;-63
2022/06/01 00:44:50;;;;;;;21.95;15.85;;;;;;;;;;4914768;28;20028;-64
2022/06/01 00:47:17;;;;;;;22.33;15.32;;;;;;;;;;4913791;28;20135;-64
2022/06/01 00:49:58;;;;;;;22.08;16.40;;;;;;;;;;4914507;29;20064;-63
2022/06/01 00:52:37;;;;;;;22.85;16.85;;;;;;;;;;4914792;29;20024;-63
2022/06/01 00:55:09;;;;;;;24.77;16.50;;;;;;;;;;4913829;29;20582;-64
2022/06/01 00:57:36;;;;;;;24.88;16.38;;;;;;;;;;4915026;29;20028;-63
2022/06/01 01:00:22;;;;;;;22.45;16.23;;;;;;;;;;4914621;29;20395;-63
2022/06/01 01:02:49;;;;;;;22.15;15.75;;;;;;;;;;4914645;29;20028;-64
2022/06/01 01:05:16;;;;;;;22.88;17.13;;;;;;;;;;4913383;29;20038;-63
2022/06/01 01:07:43;;;;;;;21.65;16.10;;;;;;;;;;4914300;29;20441;-65
2022/06/01 01:10:10;;;;;;;21.33;16.15;;;;;;;;;;4914529;29;20032;-63
2022/06/01 01:15:21;;;;;;;22.83;16.85;;;;;;;;;;4914560;29;20455;-63
2022/06/01 01:17:49;;;;;;;23.23;16.35;;;;;;;;;;4913030;29;20020;-63
2022/06/01 01:20:16;;;;;;;25.45;16.83;;;;;;;;;;4914582;29;20036;-64
2022/06/01 01:22:49;;;;;;;23.23;18.00;;;;;;;;;;4914689;29;20055;-64
2022/06/01 01:25:17;;;;;;;24.30;17.23;;;;;;;;;;4914657;29;20063;-64
2022/06/01 01:27:45;;;;;;;23.95;18.23;;;;;;;;;;4914345;29;20025;-63
2022/06/01 01:30:30;;;;;;;23.53;17.47;;;;;;;;;;4914571;29;20237;-64
2022/06/01 01:32:56;;;;;;;24.90;17.65;;;;;;;;;;4912700;29;20031;-63
2022/06/01 01:35:22;;;;;;;22.67;16.83;;;;;;;;;;4913085;29;20028;-64
2022/06/01 01:37:49;;;;;;;24.33;17.80;;;;;;;;;;4919895;29;20607;-65
2022/06/01 01:40:15;;;;;;;25.88;18.95;;;;;;;;;;4933423;29;20081;-64
2022/06/01 01:42:41;;;;;;;24.92;18.65;;;;;;;;;;4932858;29;20032;-64
2022/06/01 01:45:24;;;;;;;23.95;18.40;;;;;;;;;;4933216;29;20028;-66
2022/06/01 01:47:51;;;;;;;24.98;19.33;;;;;;;;;;4932774;29;20028;-63
2022/06/01 01:50:18;;;;;;;25.33;19.55;;;;;;;;;;4932961;29;20572;-63
2022/06/01 01:52:44;;;;;;;23.58;18.83;;;;;;;;;;4932970;29;20107;-63
2022/06/01 01:55:29;;;;;;;26.88;20.17;;;;;;;;;;4932795;29;20507;-62
2022/06/01 01:58:04;;;;;;;26.23;20.25;;;;;;;;;;4932429;29;20069;-63
2022/06/01 02:00:34;;;;;;;25.50;21.25;;;;;;;;;;4931736;29;20036;-64
2022/06/01 02:03:22;;;;;;;28.05;21.70;;;;;;;;;;4915839;29;20483;-64
2022/06/01 02:06:09;;;;;;;25.02;16.83;;;;;;;;;;4932824;29;20122;-64
2022/06/01 02:08:46;;;;;;;27.38;17.58;;;;;;;;;;4932688;29;20031;-64
2022/06/01 02:14:03;;;;;;;25.33;18.00;;;;;;;;;;4932667;29;20443;-63
2022/06/01 02:16:30;;;;;;;27.30;18.50;;;;;;;;;;4932881;29;20433;-63
2022/06/01 02:18:59;;;;;;;29.07;18.37;;;;;;;;;;4932272;29;20496;-63
2022/06/01 02:21:26;;;;;;;27.13;18.65;;;;;;;;;;4932741;29;20039;-63
2022/06/01 02:23:53;;;;;;;28.83;19.08;;;;;;;;;;4915453;29;20028;-63
2022/06/01 02:26:20;;;;;;;27.98;18.88;;;;;;;;;;4932552;29;20545;-63
2022/06/01 02:28:47;;;;;;;29.17;19.05;;;;;;;;;;4932182;29;20476;-64
2022/06/01 02:31:15;;;;;;;27.63;18.85;;;;;;;;;;4932255;29;20028;-63
2022/06/01 02:33:43;;;;;;;28.40;19.67;;;;;;;;;;4932932;29;20040;-63
2022/06/01 02:36:10;;;;;;;27.20;18.35;;;;;;;;;;4932493;29;20031;-63
2022/06/01 02:38:39;;;;;;;28.52;19.20;;;;;;;;;;4931906;29;20035;-62
2022/06/01 02:41:06;;;;;;;27.77;19.85;;;;;;;;;;4932069;29;20032;-63
2022/06/01 02:43:32;;;;;;;27.73;19.40;;;;;;;;;;4915173;29;20119;-63
2022/06/01 02:45:58;;;;;;;28.20;19.25;;;;;;;;;;4932030;29;20036;-63
2022/06/01 02:48:24;;;;;;;28.83;20.65;;;;;;;;;;4931854;29;20027;-63
2022/06/01 02:50:50;;;;;;;30.23;20.52;;;;;;;;;;4931872;29;20046;-64
2022/06/01 02:53:16;;;;;;;28.20;19.50;;;;;;;;;;4931857;29;20024;-63
2022/06/01 02:55:42;;;;;;;29.13;19.77;;;;;;;;;;4931468;29;20023;-63
2022/06/01 02:58:08;;;;;;;26.95;19.25;;;;;;;;;;4914550;29;20119;-63
2022/06/01 03:00:37;;;;;;;30.20;20.15;;;;;;;;;;4932075;29;20106;-65
2022/06/01 03:03:03;;;;;;;;;;;;;;;;;;4915304;29;20035;-64
2022/06/01 03:05:35;;;;;;;28.20;19.13;;;;;;;;;;4932049;29;19907;-63
2022/06/01 03:08:01;;;;;;;30.25;19.98;;;;;;;;;;4931643;29;20032;-62
2022/06/01 03:10:28;;;;;;;31.92;22.27;;;;;;;;;;4932079;29;20059;-63
2022/06/01 03:12:55;;;;;;;30.15;20.85;;;;;;;;;;4918223;29;20031;-62
2022/06/01 03:15:22;;;;;;;30.27;20.65;;;;;;;;;;4935245;29;20031;-63
2022/06/01 03:17:48;;;;;;;31.42;21.80;;;;;;;;;;4935046;29;20031;-63
2022/06/01 03:20:16;;;;;;;32.13;22.85;;;;;;;;;;4934002;29;20174;-63
2022/06/01 03:22:43;;;;;;;34.17;24.80;;;;;;;;;;4934856;29;20048;-63
2022/06/01 03:25:11;;;;;;;32.97;23.63;;;;;;;;;;4917989;29;20059;-63
2022/06/01 03:27:38;;;;;;;32.05;24.00;;;;;;;;;;4934557;29;20024;-63
2022/06/01 03:30:04;;;;;;;33.97;25.23;;;;;;;;;;4917674;29;20115;-63
2022/06/01 03:32:30;;;;;;;33.13;24.70;;;;;;;;;;4934961;29;20074;-62
2022/06/01 03:34:56;;;;;;;34.20;24.45;;;;;;;;;;4934606;29;20024;-63
2022/06/01 03:37:22;;;;;;;35.30;25.75;;;;;;;;;;4934348;29;20391;-62
2022/06/01 03:39:48;;;;;;;33.53;25.95;;;;;;;;;;4934711;29;20032;-63
2022/06/01 03:42:14;;;;;;;33.25;25.77;;;;;;;;;;4934650;29;20113;-63
2022/06/01 03:47:25;;;;;;;40.20;26.63;;;;;;;;;;4934581;29;20039;-63
2022/06/01 03:49:51;;;;;;;35.15;27.60;;;;;;;;;;4934228;29;20031;-63
2022/06/01 03:52:17;;;;;;;38.13;27.67;;;;;;;;;;4917540;29;20077;-63
2022/06/01 03:54:44;;;;;;;39.85;27.50;;;;;;;;;;4934521;29;20032;-62
2022/06/01 03:57:12;;;;;;;37.20;27.03;;;;;;;;;;4917637;29;20047;-62
2022/06/01 03:59:38;;;;;;;40.08;28.00;;;;;;;;;;4934829;29;20763;-63
2022/06/01 04:02:05;;;;;;;38.08;29.10;;;;;;;;;;4917944;29;20574;-63
2022/06/01 04:04:31;;;;;;;38.95;30.17;;;;;;;;;;4934976;29;20136;-63
2022/06/01 04:06:57;;;;;;;38.25;28.13;;;;;;;;;;4934720;29;20146;-63
2022/06/01 04:09:23;;;;;;;41.92;30.33;;;;;;;;;;4933819;29;20494;-62
2022/06/01 04:11:51;;;;;;;44.88;29.90;;;;;;;;;;4917247;29;20396;-63
2022/06/01 04:14:18;;;;;;;39.80;27.85;;;;;;;;;;4934618;29;20030;-63
2022/06/01 04:16:44;;;;;;;37.30;28.77;;;;;;;;;;4934297;29;20032;-63
2022/06/01 04:19:10;;;;;;;37.70;28.52;;;;;;;;;;4933922;29;20028;-63
2022/06/01 04:21:36;;;;;;;41.58;29.65;;;;;;;;;;4916758;29;20126;-63
2022/06/01 04:24:03;;;;;;;42.38;31.50;;;;;;;;;;4933354;29;20098;-62
2022/06/01 04:26:29;;;;;;;40.80;30.80;;;;;;;;;;4917006;29;20031;-62
2022/06/01 04:28:55;;;;;;;40.42;29.98;;;;;;;;;;4933663;29;20039;-61
2022/06/01 04:31:22;;;;;;;42.38;30.60;;;;;;;;;;4933832;29;20393;-62
2022/06/01 04:33:48;;;;;;;41.45;29.67;;;;;;;;;;4933664;29;20085;-63
2022/06/01 04:36:14;;;;;;;43.25;29.67;;;;;;;;;;4934068;29;20446;-64
2022/06/01 04:38:40;;;;;;;40.72;29.83;;;;;;;;;;4933401;29;20035;-63
2022/06/01 04:41:06;;;;;;;41.65;29.45;;;;;;;;;;4933870;29;20551;-63
2022/06/01 04:43:32;;;;;;;42.63;29.92;;;;;;;;;;4933531;29;20071;-63
2022/06/01 04:45:58;;;;;;;41.17;30.67;;;;;;;;;;4933691;29;20034;-63
2022/06/01 04:48:25;;;;;;;44.05;30.40;;;;;;;;;;4933523;29;20036;-63
2022/06/01 04:50:52;;;;;;;41.47;29.50;;;;;;;;;;4933068;29;20437;-63
2022/06/01 04:53:18;;;;;;;40.58;29.25;;;;;;;;;;4933409;29;20177;-64
2022/06/01 04:55:45;;;;;;;43.20;29.48;;;;;;;;;;4916636;29;20607;-63
2022/06/01 04:58:12;;;;;;;39.53;27.85;;;;;;;;;;4933103;29;20024;-63
2022/06/01 05:00:38;;;;;;;36.30;26.38;;;;;;;;;;4933277;29;20036;-64
2022/06/01 05:03:04;;;;;;;39.28;26.70;;;;;;;;;;4933150;29;20578;-63
2022/06/01 05:05:31;;;;;;;34.67;24.75;;;;;;;;;;4916480;29;20554;-64
2022/06/01 05:07:57;;;;;;;35.30;25.83;;;;;;;;;;4933058;29;20028;-63
2022/06/01 05:10:23;;;;;;;36.03;26.58;;;;;;;;;;4933158;29;20403;-65
2022/06/01 05:12:50;;;;;;;36.22;26.27;;;;;;;;;;4933579;29;20023;-64
2022/06/01 05:15:16;;;;;;;34.90;25.67;;;;;;;;;;4915909;29;20396;-64
2022/06/01 05:17:42;;;;;;;34.45;25.52;;;;;;;;;;4932569;29;20102;-64
2022/06/01 05:20:09;;;;;;;38.28;25.02;;;;;;;;;;4933185;29;20053;-63
2022/06/01 05:22:35;;;;;;;36.20;27.52;;;;;;;;;;4933231;29;20058;-63
2022/06/01 05:25:01;;;;;;;33.58;26.02;;;;;;;;;;4933523;29;20035;-63
2022/06/01 05:27:27;;;;;;;37.28;27.55;;;;;;;;;;4932639;29;20567;-63
2022/06/01 05:29:54;;;;;;;35.83;26.25;;;;;;;;;;4932708;29;20619;-64
2022/06/01 05:32:20;;;;;;;37.90;25.23;;;;;;;;;;4932822;29;20063;-64
2022/06/01 05:34:47;;;;;;;38.10;28.27;;;;;;;;;;4915433;29;20137;-64
2022/06/01 05:37:21;;;;;;;35.33;25.65;;;;;;;;;;4932594;29;20020;-64
2022/06/01 05:39:47;;;;;;;34.80;25.15;;;;;;;;;;4916134;29;20039;-63
2022/06/01 05:42:13;;;;;;;36.20;25.80;;;;;;;;;;4932706;29;20031;-62
2022/06/01 05:44:39;;;;;;;34.35;26.73;;;;;;;;;;4933174;29;20110;-64
2022/06/01 05:47:06;;;;;;;36.08;26.25;;;;;;;;;;4932785;29;20035;-63
2022/06/01 05:49:32;;;;;;;31.27;23.73;;;;;;;;;;4932930;29;20036;-63
2022/06/01 05:51:58;;;;;;;31.38;22.45;;;;;;;;;;4932721;29;20028;-63
2022/06/01 05:54:24;;;;;;;33.70;23.05;;;;;;;;;;4932897;29;20387;-63
2022/06/01 05:56:50;;;;;;;32.50;23.27;;;;;;;;;;4932566;29;20440;-64
2022/06/01 05:59:16;;;;;;;33.78;22.67;;;;;;;;;;4933019;29;20050;-62
2022/06/01 06:01:42;;;;;;;30.83;20.83;;;;;;;;;;4933011;29;20041;-64
2022/06/01 06:04:08;;;;;;;31.08;21.98;;;;;;;;;;4932641;29;20024;-63
2022/06/01 06:06:34;;;;;;;30.77;21.67;;;;;;;;;;4932507;29;20055;-64
2022/06/01 06:09:02;;;;;;;29.23;20.23;;;;;;;;;;4932185;29;20060;-64
2022/06/01 06:11:33;;;;;;;30.95;22.60;;;;;;;;;;4932841;29;20027;-63
2022/06/01 06:13:59;;;;;;;31.45;20.88;;;;;;;;;;4933777;29;20058;-64
2022/06/01 06:16:26;;;;;;;30.67;21.88;;;;;;;;;;4932597;29;20488;-63
2022/06/01 06:18:56;;;;;;;30.35;20.52;;;;;;;;;;4914219;28;20059;-63
2022/06/01 06:21:22;;;;;;;32.25;20.17;;;;;;;;;;4913497;28;20428;-63
2022/06/01 06:23:48;;;;;;;30.58;19.35;;;;;;;;;;4913986;28;20119;-64
2022/06/01 06:26:14;;;;;;;32.13;21.65;;;;;;;;;;4913496;28;20032;-63
2022/06/01 06:28:40;;;;;;;32.42;22.00;;;;;;;;;;4913118;29;20399;-63
2022/06/01 06:31:06;;;;;;;32.40;22.70;;;;;;;;;;4932982;28;20032;-63
2022/06/01 06:33:32;;;;;;;33.13;21.90;;;;;;;;;;4913473;29;20035;-63
2022/06/01 06:36:00;;;;;;;30.83;22.55;;;;;;;;;;4913375;29;20661;-63
2022/06/01 06:38:29;;;;;;;31.67;21.33;;;;;;;;;;4937285;23;20039;-62
2022/06/01 06:40:56;;;;;;;29.98;21.27;;;;;;;;;;4949772;28;20271;-63
2022/06/01 06:43:23;;;;;;;29.13;20.38;;;;;;;;;;4950361;29;20102;-64
2022/06/01 06:45:50;;;;;;;28.65;20.45;;;;;;;;;;4948947;29;20444;-64
2022/06/01 06:48:17;;;;;;;30.55;20.73;;;;;;;;;;4949204;29;20027;-59
2022/06/01 06:50:43;;;;;;;32.05;22.33;;;;;;;;;;4948978;28;20023;-64
2022/06/01 06:53:09;;;;;;;30.35;20.52;;;;;;;;;;5015301;28;20570;-64
2022/06/01 06:55:35;;;;;;;27.92;19.40;;;;;;;;;;4949364;29;20141;-63
2022/06/01 06:58:01;;;;;;;26.65;19.33;;;;;;;;;;4949208;28;20027;-62
2022/06/01 07:00:27;;;;;;;27.13;19.05;;;;;;;;;;4949785;28;20039;-63
2022/06/01 07:02:53;;;;;;;28.90;19.40;;;;;;;;;;4949738;29;20387;-64
2022/06/01 07:08:07;;;;;;;28.27;20.42;;;;;;;;;;4944930;29;20125;-63
2022/06/01 07:10:33;;;;;;;29.23;20.20;;;;;;;;;;4949346;29;20037;-64
2022/06/01 07:12:59;;;;;;;28.88;20.38;;;;;;;;;;4949759;29;20027;-62
2022/06/01 07:15:25;;;;;;;29.10;19.42;;;;;;;;;;4935927;28;20035;-63
2022/06/01 07:17:51;;;;;;;28.30;19.83;;;;;;;;;;4930778;29;20075;-63
2022/06/01 07:20:17;;;;;;;29.73;20.58;;;;;;;;;;4931082;28;20072;-63
2022/06/01 07:22:43;;;;;;;27.52;18.85;;;;;;;;;;4935065;28;20031;-64
2022/06/01 07:25:09;;;;;;;28.85;20.40;;;;;;;;;;4949797;29;20545;-64
2022/06/01 07:27:36;;;;;;;28.55;19.58;;;;;;;;;;5015271;28;20049;-64
2022/06/01 07:30:04;;;;;;;27.33;19.95;;;;;;;;;;4949503;29;20054;-64
2022/06/01 07:32:30;;;;;;;26.38;19.65;;;;;;;;;;4949005;29;20036;-61
2022/06/01 07:34:56;;;;;;;31.17;21.35;;;;;;;;;;5014537;28;20035;-63
2022/06/01 07:43:07;;;;;;;26.42;17.10;;;;;;;;;;4930125;28;20062;-63
2022/06/01 07:45:34;;;;;;;23.80;17.48;;;;;;;;;;4929971;28;20409;-63
2022/06/01 07:48:01;;;;;;;23.52;15.48;;;;;;;;;;4930088;28;20089;-65
2022/06/01 07:50:27;;;;;;;22.85;15.80;;;;;;;;;;4929930;28;20031;-62
2022/06/01 07:52:53;;;;;;;23.30;14.65;;;;;;;;;;4930224;28;20046;-65
2022/06/01 07:55:19;;;;;;;22.38;13.98;;;;;;;;;;4930226;28;20023;-64
2022/06/01 07:57:45;;;;;;;19.55;13.27;;;;;;;;;;4930517;28;20027;-63
2022/06/01 08:00:11;;;;;;;20.40;13.27;;;;;;;;;;4933463;28;20484;-64
2022/06/01 08:02:38;;;;;;;20.02;12.95;;;;;;;;;;4933155;29;20361;-65
2022/06/01 08:05:05;;;;;;;20.35;12.50;;;;;;;;;;4932978;28;20111;-63
2022/06/01 08:07:31;;;;;;;19.50;12.02;;;;;;;;;;5010416;28;20406;-63
2022/06/01 08:09:57;;;;;;;20.45;12.68;;;;;;;;;;4952289;28;20035;-63
2022/06/01 08:15:08;;;;;;;17.92;12.18;;;;;;;;;;4952179;29;20165;-65
2022/06/01 08:17:34;;;;;;;18.65;11.45;;;;;;;;;;4953337;28;20046;-62
2022/06/01 08:20:00;;;;;;;19.20;12.05;;;;;;;;;;4957175;28;20541;-63
2022/06/01 08:22:26;;;;;;;18.30;11.77;;;;;;;;;;4953138;29;20039;-63
2022/06/01 08:24:52;;;;;;;17.17;11.27;;;;;;;;;;4951844;28;20069;-63
2022/06/01 08:27:18;;;;;;;17.00;10.93;;;;;;;;;;4951744;28;20131;-65
2022/06/01 08:29:44;;;;;;;16.75;10.27;;;;;;;;;;4951792;28;20070;-60
2022/06/01 08:32:11;;;;;;;16.98;10.82;;;;;;;;;;4951738;29;20095;-58
2022/06/01 08:34:38;;;;;;;17.30;11.07;;;;;;;;;;5017904;28;20027;-64
2022/06/01 08:37:04;;;;;;;20.85;11.30;;;;;;;;;;5017669;28;20019;-57
2022/06/01 08:39:30;;;;;;;18.55;10.95;;;;;;;;;;4951153;28;20031;-57
2022/06/01 08:41:57;;;;;;;17.60;10.77;;;;;;;;;;4937924;28;20031;-62
2022/06/01 08:44:30;;;;;;;17.15;10.13;;;;;;;;;;4932340;29;20073;-59
2022/06/01 08:47:03;;;;;;;17.13;10.95;;;;;;;;;;4998080;28;20028;-58
2022/06/01 08:49:30;;;;;;;16.92;10.93;;;;;;;;;;4932033;29;20027;-60
2022/06/01 08:51:57;;;;;;;17.55;11.02;;;;;;;;;;4997917;28;20031;-58
2022/06/01 08:54:23;;;;;;;16.83;10.35;;;;;;;;;;4931853;29;20451;-60
2022/06/01 08:56:51;;;;;;;16.27;10.23;;;;;;;;;;4997643;28;20028;-58
2022/06/01 08:59:23;;;;;;;16.98;10.23;;;;;;;;;;4931964;29;20027;-59
2022/06/01 09:01:52;;;;;;;16.40;11.18;;;;;;;;;;4932223;29;20336;-60
2022/06/01 09:04:38;;;;;;;18.60;11.73;;;;;;;;;;4932083;29;20024;-59
2022/06/01 09:07:22;;;;;;;16.85;10.45;;;;;;;;;;4931799;28;20024;-57
2022/06/01 09:10:07;;;;;;;17.77;10.27;;;;;;;;;;4997249;28;20028;-58
2022/06/01 09:12:36;;;;;;;16.20;9.77;;;;;;;;;;4932335;29;20391;-57
2022/06/01 09:15:10;;;;;;;16.40;9.80;;;;;;;;;;4947129;29;20051;-60
2022/06/01 09:17:36;;;;;;;17.48;10.50;;;;;;;;;;4950793;29;20066;-57
2022/06/01 09:22:53;;;;;;;16.88;11.05;;;;;;;;;;4951110;29;20046;-57
2022/06/01 09:25:26;;;;;;;16.42;10.20;;;;;;;;;;4951019;29;20039;-60
2022/06/01 09:27:59;;;;;;;15.50;9.68;;;;;;;;;;4950888;29;20059;-55
2022/06/01 09:30:27;;;;;;;17.40;10.25;;;;;;;;;;4952455;29;20031;-59
2022/06/01 09:32:53;;;;;;;;;;;;;;;;;;4952630;28;20016;-61
2022/06/01 09:35:19;;;;;;;18.23;10.68;;;;;;;;;;4950761;28;20297;-60
2022/06/01 09:37:46;;;;;;;16.70;10.25;;;;;;;;;;4950220;28;20066;-57
2022/06/01 09:40:21;;;;;;;16.45;9.70;;;;;;;;;;4950445;29;20109;-60
2022/06/01 09:42:52;;;;;;;17.90;10.23;;;;;;;;;;5016809;28;20035;-57
2022/06/01 09:45:28;;;;;;;17.88;10.95;;;;;;;;;;4950454;28;20483;-58
2022/06/01 09:48:05;;;;;;;18.05;11.02;;;;;;;;;;5015831;28;20062;-57
2022/06/01 09:50:33;;;;;;;17.33;11.32;;;;;;;;;;4949786;29;20565;-56
2022/06/01 09:53:22;;;;;;;17.48;11.60;;;;;;;;;;4950186;28;20123;-57
2022/06/01 09:55:51;;;;;;;16.05;11.30;;;;;;;;;;4939332;28;20074;-58
2022/06/01 10:06:48;;;;;;;19.42;13.27;;;;;;;;;;4950422;29;20042;-60
2022/06/01 10:09:19;;;;;;;29.67;24.65;;;;;;;;;;5015123;28;20034;-58
2022/06/01 10:11:46;;;;;;;15.52;9.77;;;;;;;;;;4950059;29;20023;-56
2022/06/01 10:14:18;;;;;;;15.63;10.18;;;;;;;;;;4950326;28;20023;-58
2022/06/01 10:16:50;;;;;;;19.00;11.05;;;;;;;;;;5016227;28;20030;-60
2022/06/01 10:19:19;;;;;;;17.25;10.32;;;;;;;;;;4949727;29;20528;-59
2022/06/01 10:21:48;;;;;;;15.48;9.95;;;;;;;;;;4948951;29;20035;-60
2022/06/01 10:24:20;;;;;;;16.60;9.65;;;;;;;;;;4938440;29;20387;-58
2022/06/01 10:26:49;;;;;;;16.35;10.02;;;;;;;;;;4939190;29;20040;-58
2022/06/01 10:29:17;;;;;;;15.13;9.73;;;;;;;;;;4931636;29;20035;-56
2022/06/01 10:31:44;;;;;;;15.70;9.70;;;;;;;;;;4930649;29;20039;-59
2022/06/01 10:34:26;;;;;;;18.67;10.00;;;;;;;;;;4930467;29;20034;-60
2022/06/01 10:37:03;;;;;;;16.10;10.20;;;;;;;;;;4930668;29;20099;-61
2022/06/01 10:39:44;;;;;;;18.25;10.65;;;;;;;;;;4929724;29;20118;-59
2022/06/01 10:43:16;;;;;;;16.73;10.27;;;;;;;;;;4930848;29;20388;-58
2022/06/01 10:45:15;;;;;;;17.90;10.32;;;;;;;;;;4929828;28;20384;-57
2022/06/01 10:48:00;;;;;;;16.80;10.23;;;;;;;;;;4930174;29;20400;-59
2022/06/01 10:50:32;;;;;;;15.50;9.98;;;;;;;;;;4941211;29;20039;-58
2022/06/01 10:53:19;;;;;;;17.45;9.98;;;;;;;;;;4949371;29;20027;-57
2022/06/01 10:55:45;;;;;;;15.52;9.40;;;;;;;;;;5005619;28;20518;-57
2022/06/01 10:58:20;;;;;;;14.98;9.00;;;;;;;;;;4945539;28;20499;-56
2022/06/01 11:00:49;;;;;;;17.42;8.98;;;;;;;;;;4996284;28;20420;-60
2022/06/01 11:03:34;;;;;;;15.32;9.90;;;;;;;;;;4995933;28;20032;-60
2022/06/01 11:06:10;;;;;;;15.90;10.00;;;;;;;;;;4930658;28;20035;-59
2022/06/01 11:08:39;;;;;;;16.63;10.63;;;;;;;;;;4941063;28;20028;-58
2022/06/01 11:11:23;;;;;;;15.52;10.70;;;;;;;;;;4949371;29;20042;-61
2022/06/01 11:13:58;;;;;;;16.45;11.30;;;;;;;;;;4949631;29;20023;-59
2022/06/01 11:16:38;;;;;;;15.93;10.45;;;;;;;;;;4949557;29;20118;-60
2022/06/01 11:19:16;;;;;;;16.15;9.82;;;;;;;;;;4949636;29;20047;-57
2022/06/01 11:22:01;;;;;;;16.00;10.25;;;;;;;;;;4949707;29;20035;-59
2022/06/01 11:24:46;;;;;;;18.77;10.68;;;;;;;;;;4948958;29;20093;-60
2022/06/01 11:27:15;;;;;;;15.73;10.65;;;;;;;;;;4949387;29;20380;-61
2022/06/01 11:30:02;;;;;;;15.70;10.25;;;;;;;;;;4949108;29;20027;-62
2022/06/01 11:32:49;;;;;;;16.43;10.73;;;;;;;;;;4951317;28;20023;-58
2022/06/01 11:35:18;;;;;;;17.05;10.38;;;;;;;;;;4954590;28;20367;-57
2022/06/01 11:37:45;;;;;;;16.55;10.90;;;;;;;;;;4952635;28;20023;-61
2022/06/01 11:40:14;;;;;;;15.00;9.65;;;;;;;;;;5019030;28;20082;-58
2022/06/01 11:42:40;;;;;;;14.98;9.50;;;;;;;;;;4952414;29;20034;-58
2022/06/01 11:45:14;;;;;;;14.50;9.10;;;;;;;;;;4952305;28;20095;-54
2022/06/01 11:47:46;;;;;;;15.13;9.48;;;;;;;;;;4949849;29;20118;-57
2022/06/01 11:50:26;;;;;;;14.40;8.98;;;;;;;;;;4947559;29;20131;-54
2022/06/01 11:52:54;;;;;;;14.70;8.93;;;;;;;;;;4952321;29;20121;-53
2022/06/01 11:55:36;;;;;;;14.60;8.88;;;;;;;;;;4952480;29;20019;-54
2022/06/01 11:58:06;;;;;;;14.48;9.07;;;;;;;;;;4952051;28;20091;-56
2022/06/01 12:00:48;;;;;;;14.05;9.00;;;;;;;;;;4952312;28;20054;-56
2022/06/01 12:03:20;;;;;;;15.60;8.70;;;;;;;;;;4952243;28;20038;-57
2022/06/01 12:06:05;;;;;;;14.57;8.50;;;;;;;;;;4952188;28;20027;-56
2022/06/01 12:08:51;;;;;;;14.52;9.00;;;;;;;;;;4951397;28;20157;-58
2022/06/01 12:11:36;;;;;;;14.80;9.00;;;;;;;;;;4952175;28;20035;-60
2022/06/01 12:14:02;;;;;;;14.88;8.90;;;;;;;;;;4952172;29;20027;-56
2022/06/01 12:16:29;;;;;;;14.88;9.18;;;;;;;;;;4951879;29;20505;-59
2022/06/01 12:19:00;;;;;;;14.90;9.32;;;;;;;;;;4951579;29;20480;-57
2022/06/01 12:21:42;;;;;;;14.57;9.30;;;;;;;;;;5017552;28;20460;-55
2022/06/01 12:30:08;;;;;;;15.32;9.55;;;;;;;;;;4951829;29;20184;-56
2022/06/01 12:32:53;;;;;;;15.55;10.00;;;;;;;;;;4940565;28;20031;-52
2022/06/01 12:35:20;;;;;;;16.58;10.63;;;;;;;;;;4932352;29;20035;-58
2022/06/01 12:37:50;;;;;;;16.48;10.20;;;;;;;;;;4931985;28;20373;-56
2022/06/01 12:40:18;;;;;;;15.13;10.10;;;;;;;;;;4960240;23;20051;-61
2022/06/01 12:42:46;;;;;;;16.35;10.38;;;;;;;;;;4935008;28;20023;-59
2022/06/01 12:45:15;;;;;;;15.65;10.80;;;;;;;;;;4951989;28;20491;-57
2022/06/01 12:48:00;;;;;;;15.10;9.80;;;;;;;;;;4951909;29;20034;-58
2022/06/01 12:50:28;;;;;;;16.42;10.25;;;;;;;;;;4947246;28;20039;-58
2022/06/01 12:53:17;;;;;;;18.42;9.30;;;;;;;;;;4952584;29;20055;-61
2022/06/01 12:55:44;;;;;;;15.82;9.85;;;;;;;;;;4951797;28;20084;-60
2022/06/01 12:58:16;;;;;;;16.13;9.50;;;;;;;;;;4952047;28;20051;-57
2022/06/01 13:00:46;;;;;;;16.08;9.40;;;;;;;;;;4950368;28;20031;-60
2022/06/01 13:03:13;;;;;;;15.63;9.60;;;;;;;;;;4945079;28;20125;-58
2022/06/01 13:05:41;;;;;;;14.80;9.30;;;;;;;;;;4611628;28;10000095;-59
2022/06/01 13:08:14;;;;;;;16.17;12.90;;;;;;;;;;4995513;28;20539;-58
2022/06/01 13:10:40;;;;;;;21.60;19.60;;;;;;;;;;4996082;28;20477;-59
2022/06/01 13:13:08;;;;;;;23.35;21.17;;;;;;;;;;4930977;28;20545;-57
2022/06/01 13:15:35;;;;;;;30.40;28.00;;;;;;;;;;4930159;29;20385;-58
2022/06/01 13:18:02;;;;;;;32.33;29.73;;;;;;;;;;4930078;28;20038;-59
2022/06/01 13:20:38;;;;;;;33.13;30.63;;;;;;;;;;4995466;28;20038;-60
2022/06/01 13:23:12;;;;;;;34.22;31.73;;;;;;;;;;4930115;29;20016;-60
2022/06/01 13:25:39;;;;;;;36.88;34.17;;;;;;;;;;4930266;29;20487;-61
2022/06/01 13:28:05;;;;;;;37.63;34.85;;;;;;;;;;4930219;29;20019;-56
2022/06/01 13:30:33;;;;;;;38.42;35.17;;;;;;;;;;4929897;29;20032;-60
2022/06/01 13:32:59;;;;;;;36.33;33.45;;;;;;;;;;4995501;28;20035;-55
2022/06/01 13:35:25;;;;;;;33.22;30.73;;;;;;;;;;4948311;29;20039;-58
2022/06/01 13:37:53;;;;;;;31.42;28.90;;;;;;;;;;4949898;29;20031;-57
2022/06/01 13:40:22;;;;;;;30.23;27.73;;;;;;;;;;4999141;28;20035;-59
2022/06/01 13:42:50;;;;;;;26.70;24.40;;;;;;;;;;5004555;28;20074;-56
2022/06/01 13:45:17;;;;;;;23.13;20.65;;;;;;;;;;4950244;29;20058;-57
2022/06/01 13:47:49;;;;;;;21.02;18.92;;;;;;;;;;5017327;28;20027;-59
2022/06/01 13:50:15;;;;;;;19.58;17.52;;;;;;;;;;4951230;29;20028;-60
2022/06/01 13:52:54;;;;;;;20.63;18.50;;;;;;;;;;4667681;28;10000190;-57
2022/06/01 13:55:23;;;;;;;20.73;18.70;;;;;;;;;;4943761;29;20092;-59
2022/06/01 13:57:55;;;;;;;19.60;17.65;;;;;;;;;;4948654;29;20714;-57
2022/06/01 14:00:26;;;;;;;17.85;15.95;;;;;;;;;;4948939;29;20055;-57
2022/06/01 14:02:52;;;;;;;17.50;15.60;;;;;;;;;;4945243;29;20061;-59
2022/06/01 14:05:19;;;;;;;18.25;16.33;;;;;;;;;;4929515;28;20032;-58
2022/06/01 14:07:50;;;;;;;18.97;15.63;;;;;;;;;;4933774;29;20020;-58
2022/06/01 14:10:16;;;;;;;16.77;14.30;;;;;;;;;;4948359;29;20027;-58
2022/06/01 14:12:44;;;;;;;16.80;14.65;;;;;;;;;;4949297;29;20028;-59
2022/06/01 14:15:12;;;;;;;17.92;15.02;;;;;;;;;;4948780;29;20600;-58
2022/06/01 14:17:42;;;;;;;20.37;14.57;;;;;;;;;;4948005;29;20162;-62
2022/06/01 14:20:08;;;;;;;17.58;14.50;;;;;;;;;;4941627;29;20048;-60
2022/06/01 14:22:34;;;;;;;18.55;13.55;;;;;;;;;;4929220;28;20051;-60
2022/06/01 14:30:43;;;;;;;;;;;;;;;;;;4927512;29;20608;-59
2022/06/01 14:33:10;;;;;;;18.20;12.10;;;;;;;;;;4930129;29;19907;-54
2022/06/01 14:35:36;;;;;;;17.58;12.07;;;;;;;;;;4600594;28;9999798;-60
2022/06/01 14:38:02;;;;;;;17.13;11.32;;;;;;;;;;4947938;28;20491;-55
2022/06/01 14:40:28;;;;;;;16.55;11.45;;;;;;;;;;4933838;28;20638;-59
2022/06/01 14:42:56;;;;;;;17.48;11.93;;;;;;;;;;4943155;28;20054;-58
2022/06/01 14:45:22;;;;;;;17.33;11.35;;;;;;;;;;4948084;28;20042;-59
2022/06/01 14:47:48;;;;;;;15.75;10.93;;;;;;;;;;4947868;29;20031;-60
2022/06/01 14:50:14;;;;;;;16.25;11.40;;;;;;;;;;4948063;29;20041;-58
2022/06/01 14:52:41;;;;;;;16.27;10.85;;;;;;;;;;4948131;29;20030;-58
2022/06/01 14:55:07;;;;;;;17.58;11.45;;;;;;;;;;4948297;29;20457;-59
2022/06/01 14:57:33;;;;;;;17.08;10.77;;;;;;;;;;5013901;28;20187;-58
2022/06/01 15:00:01;;;;;;;16.35;11.05;;;;;;;;;;4999461;28;20115;-58
2022/06/01 15:02:27;;;;;;;16.13;10.77;;;;;;;;;;4932366;28;20092;-58
2022/06/01 15:04:56;;;;;;;16.92;11.10;;;;;;;;;;5012393;28;20485;-58
2022/06/01 15:07:23;;;;;;;16.17;10.75;;;;;;;;;;4932363;29;20039;-59
2022/06/01 15:09:49;;;;;;;16.35;10.32;;;;;;;;;;4951488;29;20039;-60
2022/06/01 15:12:16;;;;;;;16.08;10.65;;;;;;;;;;4951900;28;20062;-60